Time;durP1;ratioP1;P1;durP2;ratioP2;P2;SDS_P1;SDS_P2;PMS_P1;PMS_P2;Temp;Humidity;BMP_temperature;BMP_pressure;BME280_temperature;BME280_humidity;BME280_pressure;Samples;Min_cycle;Max_cycle;Signal;HPM_P1;HPM_P2
2023/12/12 00:01:36;;;;;;;125.10;86.03;;;19.80;70.90;;;;;;4996919;28;20163;-62
2023/12/12 00:04:02;;;;;;;117.57;81.60;;;19.80;71.00;;;;;;4996805;28;20087;-61
2023/12/12 00:06:30;;;;;;;101.00;66.00;;;19.80;71.00;;;;;;5026363;28;20022;-61
2023/12/12 00:08:56;;;;;;;128.82;86.07;;;19.80;71.30;;;;;;5000137;28;20104;-61
2023/12/12 00:11:21;;;;;;;110.45;76.72;;;19.80;71.20;;;;;;4997325;28;20026;-61
2023/12/12 00:13:47;;;;;;;99.50;67.72;;;19.80;71.50;;;;;;5002494;28;20018;-60
2023/12/12 00:16:13;;;;;;;93.90;62.85;;;19.80;71.50;;;;;;5014152;28;20057;-61
2023/12/12 00:18:38;;;;;;;85.55;56.00;;;19.70;71.70;;;;;;5000072;28;20511;-60
2023/12/12 00:21:05;;;;;;;110.75;73.00;;;19.80;71.80;;;;;;4999603;28;20030;-60
2023/12/12 00:23:31;;;;;;;75.07;51.35;;;19.80;71.60;;;;;;4996705;28;20035;-61
2023/12/12 00:25:57;;;;;;;95.28;62.40;;;19.80;72.00;;;;;;4996147;28;20037;-62
2023/12/12 00:28:23;;;;;;;102.43;67.22;;;19.80;71.90;;;;;;4997566;28;20034;-61
2023/12/12 00:30:48;;;;;;;79.43;52.78;;;19.80;72.10;;;;;;4999894;28;20018;-60
2023/12/12 00:33:14;;;;;;;84.57;57.33;;;19.80;72.00;;;;;;4998158;28;20038;-60
2023/12/12 00:35:40;;;;;;;95.43;64.97;;;19.80;72.00;;;;;;4995763;28;20033;-61
2023/12/12 00:38:05;;;;;;;102.63;65.25;;;19.80;72.20;;;;;;4994966;28;20465;-60
2023/12/12 00:40:32;;;;;;;84.78;57.13;;;19.80;72.10;;;;;;4998627;28;20100;-60
2023/12/12 00:42:58;;;;;;;81.25;53.53;;;19.80;72.20;;;;;;4999865;28;20121;-61
2023/12/12 00:45:23;;;;;;;100.45;66.28;;;19.80;72.10;;;;;;4996538;28;20560;-62
2023/12/12 00:47:49;;;;;;;100.65;61.25;;;19.80;72.00;;;;;;4996448;28;20050;-61
2023/12/12 00:50:15;;;;;;;110.78;72.68;;;19.80;72.10;;;;;;4996347;28;20076;-60
2023/12/12 00:52:41;;;;;;;112.95;74.38;;;19.90;72.00;;;;;;5006153;28;20057;-58
2023/12/12 00:55:07;;;;;;;112.57;71.30;;;19.90;72.50;;;;;;4996855;28;20029;-59
2023/12/12 00:57:33;;;;;;;108.70;69.32;;;20.00;71.80;;;;;;4996323;28;20026;-58
2023/12/12 00:59:59;;;;;;;102.78;66.63;;;20.00;71.70;;;;;;4998531;28;20061;-64
2023/12/12 01:02:25;;;;;;;98.15;63.72;;;20.00;71.60;;;;;;4998926;28;20025;-64
2023/12/12 01:04:51;;;;;;;98.20;54.50;;;20.00;71.80;;;;;;4999399;28;20029;-64
2023/12/12 01:07:17;;;;;;;95.40;60.53;;;20.00;72.20;;;;;;4998526;28;20060;-61
2023/12/12 01:09:43;;;;;;;92.95;61.63;;;20.00;72.20;;;;;;4997416;28;20030;-60
2023/12/12 01:12:08;;;;;;;90.30;59.47;;;19.90;71.90;;;;;;4997617;28;20026;-61
2023/12/12 01:14:34;;;;;;;99.55;61.35;;;20.00;71.80;;;;;;4999966;28;20018;-60
2023/12/12 01:17:00;;;;;;;86.97;58.05;;;20.00;71.90;;;;;;5000553;28;20106;-60
2023/12/12 01:19:26;;;;;;;89.20;59.05;;;19.90;71.90;;;;;;4997474;28;20031;-61
2023/12/12 01:21:51;;;;;;;102.88;61.78;;;19.90;71.90;;;;;;4997193;28;20048;-61
2023/12/12 01:24:17;;;;;;;90.03;59.08;;;20.00;71.70;;;;;;4997679;28;20030;-62
2023/12/12 01:26:43;;;;;;;91.30;59.65;;;19.90;71.90;;;;;;5000067;28;20032;-61
2023/12/12 01:29:09;;;;;;;88.38;59.03;;;20.00;71.80;;;;;;4999685;28;20026;-60
2023/12/12 01:31:34;;;;;;;88.30;57.28;;;20.00;71.70;;;;;;4997377;28;20026;-61
2023/12/12 01:34:00;;;;;;;96.72;60.00;;;20.00;71.80;;;;;;4997051;28;20515;-58
2023/12/12 01:36:26;;;;;;;92.97;56.78;;;19.90;71.50;;;;;;4998163;28;20026;-58
2023/12/12 01:38:52;;;;;;;82.78;53.65;;;20.00;71.70;;;;;;5000631;28;20393;-59
2023/12/12 01:41:18;;;;;;;87.55;57.13;;;20.00;71.80;;;;;;4998584;28;20082;-59
2023/12/12 01:43:44;;;;;;;84.57;54.55;;;20.00;71.60;;;;;;4996880;28;20432;-60
2023/12/12 01:46:14;;;;;;;86.85;57.03;;;20.00;71.70;;;;;;4996352;28;20083;-60
2023/12/12 01:48:40;;;;;;;82.35;56.05;;;20.00;71.50;;;;;;4993766;28;20022;-60
2023/12/12 01:51:06;;;;;;;75.57;50.83;;;19.90;71.80;;;;;;4999851;28;20026;-60
2023/12/12 01:53:40;;;;;;;85.65;56.30;;;19.90;71.80;;;;;;4999225;28;20029;-60
2023/12/12 01:56:07;;;;;;;75.78;49.67;;;19.90;71.80;;;;;;4994765;28;20027;-60
2023/12/12 01:58:34;;;;;;;76.82;51.85;;;19.90;71.90;;;;;;4999159;28;20385;-60
2023/12/12 02:01:00;;;;;;;75.78;50.05;;;19.90;71.70;;;;;;4999947;28;20088;-60
2023/12/12 02:03:27;;;;;;;82.20;53.17;;;19.90;71.80;;;;;;4997201;28;20510;-60
2023/12/12 02:05:57;;;;;;;75.95;50.00;;;20.00;71.70;;;;;;4995862;28;20512;-60
2023/12/12 02:08:25;;;;;;;80.47;50.30;;;20.00;71.80;;;;;;4997903;28;20042;-60
2023/12/12 02:10:50;;;;;;;81.03;51.88;;;20.00;71.50;;;;;;4999785;28;20093;-61
2023/12/12 02:13:16;;;;;;;76.57;49.50;;;20.00;72.00;;;;;;4997975;28;20033;-59
2023/12/12 02:15:42;;;;;;;77.47;48.78;;;20.00;72.40;;;;;;4995351;28;20030;-58
2023/12/12 02:18:07;;;;;;;69.70;46.92;;;20.00;72.00;;;;;;4996205;28;20038;-59
2023/12/12 02:20:33;;;;;;;63.42;42.30;;;20.00;72.00;;;;;;4998869;28;20034;-59
2023/12/12 02:22:58;;;;;;;67.13;45.25;;;20.00;72.10;;;;;;4999789;28;20061;-59
2023/12/12 02:25:24;;;;;;;67.18;45.40;;;20.00;72.00;;;;;;4996058;28;20375;-55
2023/12/12 02:27:50;;;;;;;66.38;44.58;;;20.00;71.80;;;;;;4996340;28;20022;-59
2023/12/12 02:30:18;;;;;;;64.28;44.70;;;20.00;72.00;;;;;;4995368;28;20023;-59
2023/12/12 02:32:44;;;;;;;63.05;42.17;;;20.00;72.20;;;;;;4999481;28;20026;-61
2023/12/12 02:35:09;;;;;;;68.20;47.33;;;20.00;72.00;;;;;;4997785;28;20033;-63
2023/12/12 02:37:35;;;;;;;62.70;42.17;;;20.00;72.10;;;;;;4996249;28;20026;-62
2023/12/12 02:40:00;;;;;;;54.17;37.05;;;20.00;72.30;;;;;;4996225;28;20143;-62
2023/12/12 02:42:26;;;;;;;54.55;37.67;;;19.90;72.20;;;;;;4997662;28;20060;-62
2023/12/12 02:44:52;;;;;;;59.50;39.80;;;20.00;72.10;;;;;;4999136;28;20106;-60
2023/12/12 02:47:17;;;;;;;60.88;41.90;;;20.00;72.40;;;;;;4997047;28;20030;-60
2023/12/12 02:49:43;;;;;;;62.80;42.83;;;20.00;72.00;;;;;;4996050;28;20049;-59
2023/12/12 02:52:08;;;;;;;52.72;34.30;;;20.00;72.00;;;;;;5004822;28;20470;-61
2023/12/12 02:54:34;;;;;;;60.95;39.33;;;20.00;72.60;;;;;;4992125;28;20026;-58
2023/12/12 02:57:00;;;;;;;54.70;37.22;;;20.00;72.50;;;;;;4998990;28;20026;-59
2023/12/12 02:59:25;;;;;;;63.03;39.92;;;20.00;72.80;;;;;;4996094;28;20045;-58
2023/12/12 03:01:51;;;;;;;65.88;40.58;;;20.00;72.60;;;;;;4995913;28;20026;-60
2023/12/12 03:04:16;;;;;;;64.07;40.67;;;20.00;72.20;;;;;;4995907;28;20042;-60
2023/12/12 03:06:42;;;;;;;58.58;39.40;;;20.00;72.40;;;;;;4998617;28;20032;-60
2023/12/12 03:09:07;;;;;;;50.67;36.28;;;20.00;72.60;;;;;;4998580;28;20026;-60
2023/12/12 03:11:34;;;;;;;57.90;36.28;;;20.00;72.50;;;;;;4995819;28;20030;-60
2023/12/12 03:14:00;;;;;;;46.97;30.92;;;20.00;72.60;;;;;;4995782;28;20034;-60
2023/12/12 03:16:26;;;;;;;56.03;36.35;;;20.00;72.90;;;;;;4996723;28;20022;-60
2023/12/12 03:18:51;;;;;;;56.63;38.83;;;20.00;72.50;;;;;;4999267;28;20030;-61
2023/12/12 03:21:17;;;;;;;59.67;37.10;;;20.00;72.00;;;;;;4997141;28;20030;-61
2023/12/12 03:23:43;;;;;;;53.53;31.17;;;20.00;72.20;;;;;;4995634;28;20026;-60
2023/12/12 03:26:11;;;;;;;47.20;30.10;;;20.00;72.50;;;;;;4998121;28;20129;-60
2023/12/12 03:28:36;;;;;;;48.83;28.75;;;20.00;72.60;;;;;;5000048;28;20419;-60
2023/12/12 03:31:03;;;;;;;33.03;22.55;;;19.90;72.60;;;;;;5001781;28;20026;-60
2023/12/12 03:33:29;;;;;;;36.72;22.33;;;19.90;72.70;;;;;;4995433;28;20041;-60
2023/12/12 03:35:55;;;;;;;33.13;23.65;;;19.90;72.80;;;;;;4995698;28;20026;-61
2023/12/12 03:38:20;;;;;;;33.85;23.80;;;19.90;72.80;;;;;;4996220;28;20038;-61
2023/12/12 03:40:46;;;;;;;39.10;26.13;;;19.90;72.70;;;;;;4998660;28;20022;-60
2023/12/12 03:43:11;;;;;;;35.08;24.48;;;19.90;72.60;;;;;;4998675;28;20030;-58
2023/12/12 03:45:38;;;;;;;38.38;25.90;;;19.90;72.60;;;;;;4995543;28;20474;-59
2023/12/12 03:48:04;;;;;;;42.40;23.42;;;19.90;72.70;;;;;;4999663;28;20026;-59
2023/12/12 03:50:29;;;;;;;31.23;21.67;;;19.80;72.60;;;;;;5005552;28;20025;-55
2023/12/12 03:52:55;;;;;;;31.58;20.77;;;19.80;72.70;;;;;;5004186;28;20607;-58
2023/12/12 03:55:21;;;;;;;38.13;25.60;;;19.80;72.60;;;;;;4995443;28;20042;-58
2023/12/12 03:57:47;;;;;;;35.03;24.45;;;19.80;72.50;;;;;;4997606;28;20393;-61
2023/12/12 04:00:13;;;;;;;34.65;23.65;;;19.80;72.40;;;;;;4999764;28;20092;-61
2023/12/12 04:02:40;;;;;;;31.83;22.35;;;19.80;72.50;;;;;;5002783;28;20033;-61
2023/12/12 04:05:09;;;;;;;46.58;32.95;;;19.80;72.40;;;;;;5000975;28;20050;-59
2023/12/12 04:07:36;;;;;;;42.65;27.80;;;19.80;71.90;;;;;;5008178;28;20017;-60
2023/12/12 04:10:02;;;;;;;39.38;26.23;;;19.80;71.90;;;;;;4997806;28;20034;-59
2023/12/12 04:12:28;;;;;;;35.05;23.25;;;19.90;72.20;;;;;;4996822;28;20018;-58
2023/12/12 04:14:53;;;;;;;42.30;28.75;;;19.90;72.30;;;;;;5000630;28;20105;-58
2023/12/12 04:17:19;;;;;;;43.83;28.52;;;19.80;72.20;;;;;;4996128;28;20033;-60
2023/12/12 04:19:44;;;;;;;41.90;27.85;;;19.80;72.20;;;;;;5001044;28;20075;-60
2023/12/12 04:22:10;;;;;;;44.70;24.75;;;19.80;72.20;;;;;;5001187;28;20026;-58
2023/12/12 04:24:36;;;;;;;33.63;21.52;;;19.80;72.10;;;;;;5006043;28;20363;-58
2023/12/12 04:27:02;;;;;;;24.65;16.15;;;19.80;72.30;;;;;;4999706;28;20041;-61
2023/12/12 04:29:27;;;;;;;54.95;33.47;;;19.80;72.40;;;;;;4993018;28;20080;-60
2023/12/12 04:31:53;;;;;;;48.22;33.08;;;19.80;71.50;;;;;;4993365;28;20026;-59
2023/12/12 04:34:18;;;;;;;48.95;33.20;;;19.90;71.10;;;;;;4995153;28;20084;-58
2023/12/12 04:36:44;;;;;;;48.08;30.77;;;19.90;70.90;;;;;;4997732;28;20067;-61
2023/12/12 04:39:17;;;;;;;46.45;29.92;;;20.00;70.80;;;;;;4998313;28;20505;-59
2023/12/12 04:41:43;;;;;;;53.80;30.40;;;20.00;70.70;;;;;;4998253;28;20025;-60
2023/12/12 04:44:09;;;;;;;51.13;30.63;;;20.00;70.60;;;;;;4997751;28;20054;-59
2023/12/12 04:46:35;;;;;;;46.25;30.63;;;20.00;70.80;;;;;;5000614;28;20053;-59
2023/12/12 04:49:02;;;;;;;44.47;30.30;;;20.00;70.50;;;;;;5001584;28;20026;-60
2023/12/12 04:51:28;;;;;;;45.47;28.75;;;20.00;70.50;;;;;;4997953;28;20048;-56
2023/12/12 04:53:53;;;;;;;48.22;27.63;;;20.00;70.30;;;;;;5002847;28;20065;-57
2023/12/12 04:56:19;;;;;;;38.35;24.63;;;20.00;70.60;;;;;;5007790;28;20025;-58
2023/12/12 04:58:45;;;;;;;41.33;26.50;;;20.00;71.00;;;;;;5015320;28;20491;-59
2023/12/12 05:01:14;;;;;;;38.00;22.73;;;20.00;71.00;;;;;;5008956;28;20022;-60
2023/12/12 05:03:39;;;;;;;38.17;23.50;;;20.00;71.20;;;;;;4997628;28;20034;-59
2023/12/12 05:06:07;;;;;;;32.80;20.15;;;20.00;71.20;;;;;;4997103;28;20073;-59
2023/12/12 05:08:32;;;;;;;34.60;21.58;;;20.00;71.50;;;;;;5000323;28;20026;-58
2023/12/12 05:10:58;;;;;;;39.13;24.20;;;19.90;71.50;;;;;;5008111;28;20025;-61
2023/12/12 05:13:24;;;;;;;35.03;22.42;;;19.90;71.40;;;;;;4998132;28;20161;-60
2023/12/12 05:15:49;;;;;;;33.83;19.40;;;19.90;71.60;;;;;;5002176;28;20113;-60
2023/12/12 05:18:15;;;;;;;28.92;19.65;;;19.90;71.70;;;;;;4997752;28;20038;-61
2023/12/12 05:20:41;;;;;;;24.95;16.20;;;19.90;71.60;;;;;;5000883;28;20033;-60
2023/12/12 05:23:07;;;;;;;24.60;16.95;;;19.90;71.70;;;;;;4999868;28;20179;-60
2023/12/12 05:25:33;;;;;;;24.88;15.65;;;19.90;71.80;;;;;;4995383;28;20516;-60
2023/12/12 05:27:59;;;;;;;26.25;16.02;;;19.90;71.80;;;;;;4996729;28;20030;-63
2023/12/12 05:30:25;;;;;;;32.35;17.73;;;19.90;71.90;;;;;;4998302;28;20025;-62
2023/12/12 05:32:50;;;;;;;23.95;16.75;;;19.90;71.90;;;;;;5015191;28;20497;-62
2023/12/12 05:35:16;;;;;;;23.50;16.58;;;19.90;72.00;;;;;;5006334;28;20041;-62
2023/12/12 05:37:41;;;;;;;28.67;17.63;;;19.90;71.90;;;;;;4997500;28;20386;-63
2023/12/12 05:40:07;;;;;;;24.65;16.45;;;19.90;71.90;;;;;;4997063;28;20026;-63
2023/12/12 05:42:33;;;;;;;27.77;16.23;;;19.90;71.90;;;;;;4996525;28;20030;-62
2023/12/12 05:44:59;;;;;;;28.55;15.88;;;19.90;72.10;;;;;;5001298;28;20018;-61
2023/12/12 05:47:25;;;;;;;42.88;21.02;;;19.90;72.70;;;;;;5005274;28;20022;-60
2023/12/12 05:49:50;;;;;;;37.33;19.30;;;19.90;72.30;;;;;;5002618;28;20022;-60
2023/12/12 05:52:16;;;;;;;21.02;11.85;;;19.90;73.00;;;;;;4993363;28;20099;-60
2023/12/12 05:54:42;;;;;;;21.27;12.57;;;19.90;73.30;;;;;;4998880;28;20481;-60
2023/12/12 05:57:08;;;;;;;19.98;10.90;;;19.90;73.40;;;;;;4998260;28;20063;-59
2023/12/12 05:59:34;;;;;;;19.48;11.20;;;19.90;73.50;;;;;;4998073;28;20021;-61
2023/12/12 06:02:00;;;;;;;22.30;11.80;;;19.80;73.40;;;;;;5009187;28;20109;-61
2023/12/12 06:04:27;;;;;;;18.88;10.88;;;19.80;73.50;;;;;;4996039;28;20026;-60
2023/12/12 06:06:52;;;;;;;19.73;11.27;;;19.80;73.50;;;;;;4999609;28;20030;-60
2023/12/12 06:09:18;;;;;;;17.08;10.15;;;19.80;73.40;;;;;;5005477;28;20026;-61
2023/12/12 06:11:44;;;;;;;19.45;10.70;;;19.80;73.40;;;;;;5002923;28;20030;-61
2023/12/12 06:14:09;;;;;;;19.05;10.18;;;19.80;73.30;;;;;;4997701;28;20034;-62
2023/12/12 06:16:35;;;;;;;18.27;10.15;;;19.80;73.30;;;;;;5004670;28;20374;-61
2023/12/12 06:19:04;;;;;;;16.42;9.82;;;19.70;73.30;;;;;;5002879;28;20077;-62
2023/12/12 06:21:33;;;;;;;16.80;9.68;;;19.80;73.20;;;;;;4995063;28;20036;-61
2023/12/12 06:24:01;;;;;;;26.10;15.13;;;19.80;73.20;;;;;;4996141;28;20027;-61
2023/12/12 06:26:27;;;;;;;25.38;14.75;;;19.70;72.50;;;;;;4998217;28;20025;-58
2023/12/12 06:28:53;;;;;;;25.77;13.13;;;19.80;72.40;;;;;;4999875;28;20021;-58
2023/12/12 06:31:19;;;;;;;19.38;9.85;;;19.80;72.90;;;;;;4997661;28;20018;-58
2023/12/12 06:33:45;;;;;;;23.00;12.55;;;19.80;73.30;;;;;;4996467;28;20068;-59
2023/12/12 06:36:11;;;;;;;18.67;9.95;;;19.80;72.90;;;;;;4995847;28;20036;-59
2023/12/12 06:38:36;;;;;;;14.82;8.45;;;19.80;73.20;;;;;;4999508;28;20093;-60
2023/12/12 06:41:03;;;;;;;25.40;12.15;;;19.80;73.20;;;;;;5000261;28;20030;-58
2023/12/12 06:43:29;;;;;;;20.08;12.20;;;19.80;72.90;;;;;;4995139;28;20443;-59
2023/12/12 06:45:54;;;;;;;21.52;10.68;;;19.80;72.80;;;;;;4995941;28;20014;-60
2023/12/12 06:48:20;;;;;;;25.20;12.30;;;19.90;72.90;;;;;;4997323;28;20433;-58
2023/12/12 06:50:46;;;;;;;26.15;10.95;;;19.80;72.90;;;;;;4999783;28;20037;-62
2023/12/12 06:53:11;;;;;;;26.40;13.38;;;19.80;72.50;;;;;;4998397;28;20049;-61
2023/12/12 06:55:38;;;;;;;30.25;12.80;;;19.80;72.40;;;;;;4996029;28;20123;-58
2023/12/12 06:58:03;;;;;;;25.58;12.02;;;19.90;72.60;;;;;;4996745;28;20055;-60
2023/12/12 07:00:29;;;;;;;16.60;10.57;;;20.00;72.70;;;;;;4993445;28;20034;-56
2023/12/12 07:02:55;;;;;;;11.45;7.65;;;19.90;72.60;;;;;;5000634;28;20573;-56
2023/12/12 07:05:21;;;;;;;17.80;9.43;;;19.90;72.80;;;;;;5001216;28;20036;-57
2023/12/12 07:07:47;;;;;;;18.15;10.20;;;19.90;72.60;;;;;;5001686;28;20015;-57
2023/12/12 07:10:14;;;;;;;18.95;11.55;;;19.80;72.50;;;;;;4997686;28;20027;-58
2023/12/12 07:12:39;;;;;;;17.17;9.70;;;19.90;72.30;;;;;;5003661;28;20022;-58
2023/12/12 07:15:07;;;;;;;13.63;7.90;;;19.80;72.30;;;;;;5008443;28;20053;-59
2023/12/12 07:17:32;;;;;;;23.98;12.15;;;19.80;72.10;;;;;;4994525;28;20030;-61
2023/12/12 07:19:58;;;;;;;22.00;12.13;;;19.80;72.00;;;;;;4996012;28;20026;-60
2023/12/12 07:22:24;;;;;;;34.53;12.27;;;19.80;72.20;;;;;;4997034;28;20088;-56
2023/12/12 07:24:49;;;;;;;56.05;13.30;;;19.90;72.10;;;;;;4998835;28;20014;-63
2023/12/12 07:27:16;;;;;;;62.58;13.95;;;19.90;72.40;;;;;;4997323;28;20036;-64
2023/12/12 07:29:41;;;;;;;37.78;13.07;;;20.00;72.80;;;;;;4995940;28;20014;-64
2023/12/12 07:32:07;;;;;;;58.40;13.45;;;20.00;72.40;;;;;;4995630;28;20075;-63
2023/12/12 07:34:32;;;;;;;58.55;14.35;;;20.00;73.20;;;;;;4997877;28;20034;-64
2023/12/12 07:36:58;;;;;;;48.95;13.13;;;20.00;72.20;;;;;;4998568;28;20022;-64
2023/12/12 07:39:24;;;;;;;18.75;7.57;;;20.00;72.80;;;;;;4996442;28;20029;-64
2023/12/12 07:41:49;;;;;;;32.40;12.27;;;20.00;72.90;;;;;;4995990;28;20022;-62
2023/12/12 07:44:15;;;;;;;39.55;12.73;;;20.00;72.50;;;;;;4995705;28;20033;-59
2023/12/12 07:46:41;;;;;;;34.38;12.73;;;20.00;72.40;;;;;;4998649;28;20405;-58
2023/12/12 07:49:07;;;;;;;37.78;12.20;;;20.00;72.00;;;;;;4998741;28;20026;-63
2023/12/12 07:51:32;;;;;;;30.42;11.63;;;20.00;72.20;;;;;;4995354;28;20027;-63
2023/12/12 07:54:03;;;;;;;32.60;11.75;;;20.00;72.10;;;;;;4995548;28;20023;-58
2023/12/12 07:56:29;;;;;;;33.15;10.68;;;20.00;72.10;;;;;;4996930;28;20113;-63
2023/12/12 07:58:55;;;;;;;30.50;11.15;;;20.00;72.10;;;;;;4998813;28;20026;-57
2023/12/12 08:01:21;;;;;;;31.48;11.68;;;20.00;72.10;;;;;;4996225;28;20084;-57
2023/12/12 08:03:46;;;;;;;29.92;11.55;;;20.00;71.80;;;;;;4994990;28;20030;-59
2023/12/12 08:06:12;;;;;;;37.15;11.70;;;20.00;71.70;;;;;;4994505;28;20026;-58
2023/12/12 08:08:37;;;;;;;24.52;10.50;;;20.00;71.70;;;;;;5003963;28;20031;-60
2023/12/12 08:11:03;;;;;;;26.70;10.35;;;20.00;71.60;;;;;;5002438;28;20362;-56
2023/12/12 08:13:30;;;;;;;25.63;9.82;;;20.00;71.60;;;;;;5000920;28;20030;-59
2023/12/12 08:15:56;;;;;;;27.73;10.98;;;20.00;71.70;;;;;;5004163;28;20537;-60
2023/12/12 08:18:22;;;;;;;11.68;5.28;;;20.00;71.60;;;;;;4999751;28;20038;-62
2023/12/12 08:20:49;;;;;;;6.13;2.30;;;19.90;65.30;;;;;;5001652;28;20029;-61
2023/12/12 08:23:15;;;;;;;3.30;1.60;;;19.60;56.80;;;;;;5000295;28;20056;-62
2023/12/12 08:25:40;;;;;;;4.72;2.05;;;19.30;53.70;;;;;;4997784;28;20054;-62
2023/12/12 08:28:06;;;;;;;3.63;1.90;;;19.00;52.70;;;;;;4998476;28;20023;-62
2023/12/12 08:30:31;;;;;;;4.72;1.65;;;18.70;51.90;;;;;;5000784;28;20023;-59
2023/12/12 08:32:57;;;;;;;4.45;1.48;;;18.30;53.50;;;;;;5002013;28;20018;-59
2023/12/12 08:35:22;;;;;;;4.93;1.55;;;18.00;61.30;;;;;;4998344;28;20037;-58
2023/12/12 08:37:48;;;;;;;7.32;1.80;;;18.20;64.30;;;;;;5002002;28;20030;-58
2023/12/12 08:40:14;;;;;;;4.03;1.92;;;18.40;65.40;;;;;;5000456;28;20046;-55
2023/12/12 08:42:39;;;;;;;3.90;1.58;;;18.60;65.30;;;;;;5001625;28;20018;-59
2023/12/12 08:45:05;;;;;;;3.20;1.63;;;18.90;65.10;;;;;;5001016;28;20026;-61
2023/12/12 08:47:31;;;;;;;9.88;2.28;;;19.10;64.90;;;;;;4997978;28;20372;-62
2023/12/12 08:49:59;;;;;;;14.05;1.58;;;19.30;64.70;;;;;;4998095;28;20489;-60
2023/12/12 08:52:26;;;;;;;11.10;2.47;;;19.50;64.60;;;;;;4999600;28;20389;-60
2023/12/12 08:54:52;;;;;;;5.63;1.48;;;19.60;64.70;;;;;;5001150;28;20128;-62
2023/12/12 08:57:18;;;;;;;9.75;2.25;;;19.70;64.50;;;;;;5000702;28;20529;-61
2023/12/12 08:59:43;;;;;;;13.73;2.65;;;19.90;64.50;;;;;;5014712;28;20026;-62
2023/12/12 09:02:09;;;;;;;7.28;1.60;;;19.90;64.40;;;;;;4999453;28;20030;-61
2023/12/12 09:04:36;;;;;;;14.80;2.75;;;20.00;64.30;;;;;;5013817;28;20050;-60
2023/12/12 09:07:01;;;;;;;11.02;2.97;;;20.00;64.30;;;;;;5009042;28;20033;-61
2023/12/12 09:09:27;;;;;;;19.60;2.65;;;20.10;64.30;;;;;;4996296;28;20030;-60
2023/12/12 09:11:54;;;;;;;6.55;2.33;;;20.10;64.30;;;;;;4996404;28;20128;-60
2023/12/12 09:14:19;;;;;;;9.00;2.45;;;20.20;64.30;;;;;;5003710;28;20105;-61
2023/12/12 09:16:45;;;;;;;16.88;2.22;;;20.20;64.20;;;;;;5000245;28;20453;-59
2023/12/12 09:19:14;;;;;;;7.53;1.85;;;20.20;64.30;;;;;;4999566;28;20665;-61
2023/12/12 09:21:40;;;;;;;8.82;2.42;;;20.20;64.30;;;;;;4997315;28;20026;-61
2023/12/12 09:24:06;;;;;;;9.30;1.85;;;20.20;64.30;;;;;;4996926;28;20069;-60
2023/12/12 09:26:32;;;;;;;9.10;2.53;;;20.20;64.40;;;;;;4998958;28;20051;-59
2023/12/12 09:28:57;;;;;;;6.10;2.42;;;20.10;64.50;;;;;;5001127;28;20026;-61
2023/12/12 09:31:27;;;;;;;5.15;1.98;;;20.20;64.60;;;;;;4998192;28;20033;-60
2023/12/12 09:33:54;;;;;;;5.18;1.88;;;20.10;64.60;;;;;;4997130;28;20570;-59
2023/12/12 09:36:19;;;;;;;7.43;1.77;;;20.10;64.70;;;;;;4997532;28;20490;-61
2023/12/12 09:38:45;;;;;;;5.35;1.63;;;20.10;64.80;;;;;;5000691;28;20034;-61
2023/12/12 09:41:16;;;;;;;6.15;2.03;;;20.00;64.80;;;;;;5000075;28;20026;-62
2023/12/12 09:43:44;;;;;;;7.22;2.00;;;20.00;64.90;;;;;;4997356;28;20022;-61
2023/12/12 09:46:11;;;;;;;6.68;1.90;;;20.00;64.90;;;;;;4996670;28;20397;-60
2023/12/12 09:48:38;;;;;;;5.28;1.58;;;20.00;65.00;;;;;;5000670;28;20029;-61
2023/12/12 09:51:06;;;;;;;10.95;2.17;;;20.00;65.00;;;;;;5000584;28;20029;-62
2023/12/12 09:53:35;;;;;;;5.85;1.55;;;20.00;65.00;;;;;;4997411;28;20060;-60
2023/12/12 09:56:03;;;;;;;5.47;1.80;;;20.00;65.00;;;;;;4996564;28;20030;-61
2023/12/12 09:58:29;;;;;;;4.50;1.45;;;20.00;65.10;;;;;;4999042;28;20018;-59
2023/12/12 10:00:55;;;;;;;5.30;1.70;;;20.00;65.10;;;;;;5000150;28;20037;-60
2023/12/12 10:03:22;;;;;;;6.03;1.92;;;19.90;65.20;;;;;;4998078;28;20576;-60
2023/12/12 10:05:52;;;;;;;8.45;2.28;;;20.00;65.10;;;;;;4996408;28;20493;-60
2023/12/12 10:08:18;;;;;;;4.60;2.05;;;19.90;65.10;;;;;;4997479;28;20490;-61
2023/12/12 10:10:44;;;;;;;4.50;1.40;;;19.90;65.10;;;;;;5000467;28;20079;-63
2023/12/12 10:13:10;;;;;;;7.05;2.15;;;19.90;65.20;;;;;;4997087;28;20038;-61
2023/12/12 10:15:36;;;;;;;4.75;1.42;;;19.90;65.20;;;;;;5002442;28;20022;-60
2023/12/12 10:18:01;;;;;;;2.83;1.38;;;19.90;65.30;;;;;;4997193;28;20451;-61
2023/12/12 10:20:29;;;;;;;5.43;1.67;;;19.90;65.40;;;;;;4998564;28;20051;-61
2023/12/12 10:22:59;;;;;;;5.82;1.52;;;19.90;65.40;;;;;;5000206;28;20477;-62
2023/12/12 10:25:25;;;;;;;3.60;1.80;;;19.90;65.50;;;;;;4996761;28;20038;-61
2023/12/12 10:27:52;;;;;;;8.70;1.77;;;19.80;65.50;;;;;;4996691;28;20018;-60
2023/12/12 10:30:22;;;;;;;8.35;1.95;;;19.90;65.50;;;;;;4997251;28;20521;-61
2023/12/12 10:32:52;;;;;;;7.47;1.83;;;19.80;65.60;;;;;;5000231;28;20033;-60
2023/12/12 10:35:19;;;;;;;7.10;1.65;;;19.90;65.60;;;;;;4997763;28;20080;-59
2023/12/12 10:37:45;;;;;;;3.42;2.00;;;19.90;65.70;;;;;;4996419;28;20027;-60
2023/12/12 10:40:15;;;;;;;8.55;2.08;;;19.90;65.70;;;;;;4996511;28;20052;-62
2023/12/12 10:42:41;;;;;;;6.40;1.73;;;19.90;65.70;;;;;;4993096;28;20022;-62
2023/12/12 10:45:09;;;;;;;5.57;2.28;;;19.80;65.70;;;;;;4998946;28;20032;-62
2023/12/12 10:47:46;;;;;;;5.18;1.80;;;19.90;65.70;;;;;;4996367;28;20422;-60
2023/12/12 10:50:14;;;;;;;5.47;2.00;;;19.90;65.60;;;;;;4996525;28;20115;-60
2023/12/12 10:52:40;;;;;;;4.13;1.75;;;19.90;65.70;;;;;;4992708;28;20033;-60
2023/12/12 10:55:09;;;;;;;5.65;2.17;;;19.90;65.60;;;;;;4998905;28;20058;-62
2023/12/12 10:57:37;;;;;;;6.45;2.08;;;19.90;65.70;;;;;;4996161;28;20484;-61
2023/12/12 11:00:11;;;;;;;6.50;2.15;;;19.90;65.80;;;;;;4996320;28;20046;-62
2023/12/12 11:02:39;;;;;;;6.55;2.33;;;19.90;65.80;;;;;;4999164;28;20477;-61
2023/12/12 11:05:13;;;;;;;4.95;2.72;;;19.90;65.90;;;;;;4998849;28;20036;-61
2023/12/12 11:07:40;;;;;;;4.30;2.28;;;19.90;66.00;;;;;;4996408;28;20025;-60
2023/12/12 11:10:11;;;;;;;8.88;2.53;;;19.90;66.10;;;;;;4996464;28;20083;-60
2023/12/12 11:12:51;;;;;;;6.57;2.58;;;19.90;66.30;;;;;;5004672;28;20508;-61
2023/12/12 11:15:18;;;;;;;5.60;2.67;;;19.90;66.30;;;;;;5000216;28;20114;-62
2023/12/12 11:17:47;;;;;;;6.60;3.08;;;19.90;66.30;;;;;;4996623;28;20035;-61
2023/12/12 11:20:14;;;;;;;6.50;2.15;;;19.90;66.40;;;;;;5000065;28;20030;-61
2023/12/12 11:22:41;;;;;;;7.25;2.72;;;19.90;66.40;;;;;;5005802;28;20111;-60
2023/12/12 11:25:11;;;;;;;9.40;2.95;;;19.90;66.30;;;;;;5000474;28;20023;-61
2023/12/12 11:27:41;;;;;;;5.85;2.00;;;19.90;66.40;;;;;;4999654;28;20022;-59
2023/12/12 11:30:08;;;;;;;4.40;2.13;;;19.90;66.40;;;;;;5001519;28;20114;-62
2023/12/12 11:32:35;;;;;;;5.32;2.13;;;19.90;66.40;;;;;;5000464;28;20034;-62
2023/12/12 11:35:03;;;;;;;9.60;2.72;;;19.90;66.50;;;;;;4998781;28;20054;-62
2023/12/12 11:37:40;;;;;;;7.50;2.42;;;19.80;66.50;;;;;;5007888;28;20030;-60
2023/12/12 11:40:06;;;;;;;6.20;2.45;;;19.90;66.60;;;;;;4999092;28;20512;-62
2023/12/12 11:42:32;;;;;;;5.32;2.13;;;19.90;66.60;;;;;;5006286;28;20638;-61
2023/12/12 11:44:58;;;;;;;4.70;1.90;;;19.90;66.60;;;;;;4998456;28;20106;-61
2023/12/12 11:47:29;;;;;;;3.70;2.00;;;19.90;66.60;;;;;;5003483;28;20026;-61
2023/12/12 11:50:18;;;;;;;6.50;2.30;;;19.90;66.70;;;;;;4997324;28;20079;-61
2023/12/12 11:52:45;;;;;;;6.18;1.83;;;19.90;66.60;;;;;;4997569;28;20027;-60
2023/12/12 11:55:23;;;;;;;5.68;2.03;;;19.90;66.70;;;;;;4995361;28;20056;-62
2023/12/12 11:57:49;;;;;;;4.18;1.83;;;19.80;66.70;;;;;;5007302;28;20030;-63
2023/12/12 12:00:17;;;;;;;4.93;2.00;;;19.80;66.70;;;;;;5004721;28;20042;-61
2023/12/12 12:02:42;;;;;;;7.22;1.80;;;19.90;66.80;;;;;;4998642;28;20026;-61
2023/12/12 12:05:09;;;;;;;5.63;2.25;;;19.80;66.80;;;;;;5007669;28;20056;-61
2023/12/12 12:07:38;;;;;;;7.60;2.42;;;19.80;66.90;;;;;;5008224;28;20431;-61
2023/12/12 12:10:10;;;;;;;9.32;2.80;;;19.90;67.50;;;;;;5007958;28;20030;-62
2023/12/12 12:12:35;;;;;;;9.63;2.60;;;19.90;67.90;;;;;;5006579;28;20026;-64
2023/12/12 12:15:11;;;;;;;8.35;2.78;;;19.90;67.80;;;;;;5007701;28;20505;-64
2023/12/12 12:17:37;;;;;;;8.60;2.10;;;20.00;68.20;;;;;;5008400;28;20022;-64
2023/12/12 12:20:04;;;;;;;7.05;2.55;;;20.00;67.90;;;;;;5008491;28;20082;-60
2023/12/12 12:22:29;;;;;;;13.48;2.78;;;20.00;67.70;;;;;;5007925;28;20039;-62
2023/12/12 12:24:56;;;;;;;5.15;2.45;;;20.00;67.90;;;;;;5007872;28;20478;-62
2023/12/12 12:27:21;;;;;;;18.70;3.10;;;19.90;67.90;;;;;;5005409;28;20026;-63
2023/12/12 12:30:06;;;;;;;16.00;3.33;;;20.00;68.00;;;;;;5007916;28;20026;-63